Terminal Aerodrome Forecast
Issued by NWS Wichita, KS

Home | Current Version | Previous Version | Text Only | Print | Product List | Glossary On
Versions: 1 2 3 4 5 6 7 8 9 10 11 12 13 14 15 16 17 18 19 20 21 22
000
FTUS43 KICT 072336
TAFICT
TAF
KICT 072336Z 0800/0824 03013KT P6SM VCSH SCT030 OVC100
     FM080900 03011KT 4SM -DZ VCSH SCT009 OVC015
     FM081500 08010KT 5SM -DZ BR OVC015
     FM081800 03010KT P6SM SCT030 BKN100=

USA.gov is the U.S. government's official web portal to all federal, state and local government web resources and services.